Terminal Aerodrome Forecast
Issued by NWS Wichita, KS

Home | Current Version | Previous Version | Text Only | Print | Product List | Glossary On
Versions: 1 2 3 4 5 6 7 8 9 10 11 12 13 14 15 16 17 18 19
000
FTUS43 KICT 290526
TAFICT
TAF
KICT 290526Z 2906/3006 12006KT P6SM FEW250
     FM291100 07004KT P6SM SCT050
     FM291400 06008KT P6SM BKN050
     FM292000 05010KT P6SM BKN035
     FM300200 02018G25KT P6SM SCT020 BKN030=

USA.gov is the U.S. government's official web portal to all federal, state and local government web resources and services.